Time;durP1;ratioP1;P1;durP2;ratioP2;P2;SDS_P1;SDS_P2;PMS_P1;PMS_P2;Temp;Humidity;BMP_temperature;BMP_pressure;BME280_temperature;BME280_humidity;BME280_pressure;Samples;Min_cycle;Max_cycle;Signal;HPM_P1;HPM_P2
2022/01/19 00:00:45;;;;;;;255.65;20.17;;;;;;;2.14;100.00;103404.44;5031486;28;20037;-74
2022/01/19 00:03:11;;;;;;;144.18;18.65;;;;;;;2.13;100.00;103395.75;5019229;28;20496;-74
2022/01/19 00:05:36;;;;;;;223.52;21.42;;;;;;;2.11;100.00;103391.16;5028854;28;20096;-74
2022/01/19 00:08:02;;;;;;;256.83;21.58;;;;;;;2.07;100.00;103379.56;5015680;28;20026;-74
2022/01/19 00:10:28;;;;;;;58.40;16.70;;;;;;;2.08;100.00;103375.31;5028372;28;20374;-74
2022/01/19 00:12:55;;;;;;;87.70;17.23;;;;;;;2.07;100.00;103368.28;5014495;28;20029;-74
2022/01/19 00:15:22;;;;;;;166.50;20.42;;;;;;;2.07;100.00;103365.69;5032457;28;20025;-74
2022/01/19 00:17:48;;;;;;;167.55;19.80;;;;;;;1.99;100.00;103381.50;5017308;28;20113;-74
2022/01/19 00:20:13;;;;;;;262.00;21.30;;;;;;;1.95;100.00;103384.53;5014952;28;20434;-74
2022/01/19 00:22:39;;;;;;;226.77;22.42;;;;;;;1.90;100.00;103375.44;5018801;28;20087;-74
2022/01/19 00:25:08;;;;;;;152.35;18.45;;;;;;;1.85;100.00;103368.91;5027725;28;20033;-74
2022/01/19 00:27:34;;;;;;;160.15;17.77;;;;;;;1.84;100.00;103364.47;5013112;28;20163;-75
2022/01/19 00:29:59;;;;;;;132.18;18.83;;;;;;;1.80;100.00;103346.78;5031866;28;20065;-74
2022/01/19 00:32:26;;;;;;;176.50;18.45;;;;;;;1.80;100.00;103344.19;5027315;28;20183;-73
2022/01/19 00:34:51;;;;;;;233.38;19.95;;;;;;;1.77;100.00;103331.84;5029930;28;20100;-74
2022/01/19 00:37:17;;;;;;;132.05;19.48;;;;;;;1.84;100.00;103315.13;5033582;28;20385;-74
2022/01/19 00:39:42;;;;;;;91.93;17.15;;;;;;;1.77;100.00;103295.50;5028701;28;20033;-74
2022/01/19 00:42:08;;;;;;;112.80;20.00;;;;;;;1.77;100.00;103287.69;5016213;28;20076;-74
2022/01/19 00:44:33;;;;;;;87.70;19.02;;;;;;;1.77;100.00;103281.63;5026505;28;20048;-74
2022/01/19 00:46:59;;;;;;;83.78;17.95;;;;;;;1.76;100.00;103269.41;5016824;28;20030;-74
2022/01/19 00:49:24;;;;;;;72.30;16.92;;;;;;;1.72;100.00;103269.88;5027443;28;20099;-74
2022/01/19 00:51:49;;;;;;;141.65;19.17;;;;;;;1.66;100.00;103271.13;5026456;28;20029;-74
2022/01/19 00:54:15;;;;;;;66.30;18.88;;;;;;;1.62;100.00;103281.13;5020868;28;20022;-74
2022/01/19 00:56:40;;;;;;;125.68;19.20;;;;;;;1.58;100.00;103282.50;5019068;28;20033;-74
2022/01/19 00:59:06;;;;;;;60.35;16.75;;;;;;;1.50;100.00;103278.28;5019627;28;20440;-74
2022/01/19 01:01:31;;;;;;;44.00;16.15;;;;;;;1.46;100.00;103274.47;5031852;28;20040;-74
2022/01/19 01:03:57;;;;;;;58.58;19.27;;;;;;;1.44;100.00;103269.91;5038663;28;20030;-74
2022/01/19 01:06:22;;;;;;;45.03;15.82;;;;;;;1.40;100.00;103271.34;5037999;28;20025;-74
2022/01/19 01:08:48;;;;;;;53.15;16.88;;;;;;;1.34;100.00;103261.31;5027120;28;20034;-74
2022/01/19 01:11:14;;;;;;;107.53;17.00;;;;;;;1.31;100.00;103249.72;5024741;28;20021;-74
2022/01/19 01:16:33;;;;;;;144.60;18.38;;;;;;;1.23;100.00;103238.63;5036979;28;20092;-74
2022/01/19 01:19:01;;;;;;;183.02;19.52;;;;;;;1.21;100.00;103231.47;5035394;28;20339;-74
2022/01/19 01:21:26;;;;;;;201.82;21.80;;;;;;;1.17;100.00;103233.78;5034395;28;20037;-74
2022/01/19 01:23:51;;;;;;;176.80;18.85;;;;;;;1.14;100.00;103217.00;5031557;28;20033;-74
2022/01/19 01:26:17;;;;;;;108.18;20.08;;;;;;;1.18;100.00;103216.53;5037036;28;20358;-73
2022/01/19 01:28:42;;;;;;;146.15;19.98;;;;;;;1.17;100.00;103217.31;5031393;28;20481;-74
2022/01/19 01:31:09;;;;;;;110.15;18.20;;;;;;;1.13;100.00;103207.44;5035426;28;20037;-73
2022/01/19 01:33:35;;;;;;;71.80;16.63;;;;;;;1.09;100.00;103200.13;5029141;28;20065;-73
2022/01/19 01:36:01;;;;;;;49.80;15.70;;;;;;;1.08;100.00;103204.41;5025449;28;20389;-73
2022/01/19 01:38:27;;;;;;;52.17;17.15;;;;;;;1.06;100.00;103192.97;5024158;28;20050;-74
2022/01/19 01:40:52;;;;;;;47.47;16.05;;;;;;;1.02;100.00;103172.72;5036095;28;20092;-73
2022/01/19 01:43:18;;;;;;;62.63;15.40;;;;;;;1.00;100.00;103158.69;5038772;28;20034;-73
2022/01/19 01:45:46;;;;;;;139.13;19.70;;;;;;;0.98;100.00;103145.59;5024976;28;20032;-73
2022/01/19 01:48:16;;;;;;;68.05;18.55;;;;;;;0.95;100.00;103139.19;5023594;28;20113;-74
2022/01/19 01:53:29;;;;;;;128.57;18.77;;;;;;;0.87;100.00;103155.72;5034939;28;20048;-73
2022/01/19 01:56:00;;;;;;;55.00;17.20;;;;;;;0.84;100.00;103151.16;5033298;28;20025;-73
2022/01/19 01:58:28;;;;;;;149.52;18.95;;;;;;;0.84;100.00;103145.97;5024755;28;20062;-74
2022/01/19 02:00:54;;;;;;;39.92;14.73;;;;;;;0.79;100.00;103145.56;5023403;28;20061;-75
2022/01/19 02:03:20;;;;;;;93.07;18.38;;;;;;;0.79;100.00;103147.25;5035376;28;20470;-75
2022/01/19 02:06:32;;;;;;;62.03;16.02;;;;;;;0.83;100.00;103146.78;5027237;28;20026;-74
2022/01/19 02:08:43;;;;;;;53.65;14.75;;;;;;;0.77;100.00;103149.69;5030790;28;20048;-74
2022/01/19 02:16:30;;;;;;;51.33;17.83;;;;;;;0.79;100.00;103155.94;5022384;28;20040;-74
2022/01/19 02:24:10;;;;;;;57.38;23.38;;;;;;;1.04;100.00;103140.06;5027603;28;20529;-73
2022/01/19 02:27:04;;;;;;;64.63;26.38;;;;;;;1.09;100.00;103133.63;5019677;28;20026;-74
2022/01/19 02:40:24;;;;;;;66.88;24.80;;;;;;;1.33;100.00;103092.56;5018881;28;20060;-74
2022/01/19 02:50:56;;;;;;;60.42;22.05;;;;;;;1.43;100.00;103047.59;5022831;28;20044;-74
2022/01/19 02:53:22;;;;;;;65.65;24.65;;;;;;;1.44;100.00;103032.16;5017833;28;20026;-74
2022/01/19 02:55:47;;;;;;;56.67;22.38;;;;;;;1.48;100.00;103036.84;5023260;28;20501;-74
2022/01/19 02:58:17;;;;;;;58.22;22.77;;;;;;;1.49;100.00;103017.00;5033853;28;20010;-73
2022/01/19 03:08:56;;;;;;;50.80;22.05;;;;;;;1.44;100.00;102988.06;5019692;28;20102;-74
2022/01/19 03:11:24;;;;;;;64.32;25.00;;;;;;;1.46;100.00;102983.91;5026316;28;20037;-74
2022/01/19 03:13:49;;;;;;;72.13;24.08;;;;;;;1.51;100.00;102984.31;5034278;28;20040;-74
2022/01/19 03:16:18;;;;;;;72.30;25.00;;;;;;;1.55;100.00;102983.81;5019817;28;20041;-75
2022/01/19 03:18:44;;;;;;;62.85;23.20;;;;;;;1.60;100.00;102979.97;5023539;28;20541;-74
2022/01/19 03:21:09;;;;;;;60.70;24.00;;;;;;;1.62;100.00;102968.00;5014315;28;20108;-74
2022/01/19 03:23:34;;;;;;;61.30;22.77;;;;;;;1.63;100.00;102975.03;5020770;28;20481;-74
2022/01/19 03:26:05;;;;;;;62.60;24.35;;;;;;;1.64;100.00;102971.66;5016630;28;20044;-74
2022/01/19 03:28:31;;;;;;;82.28;26.85;;;;;;;1.69;100.00;102974.63;5031927;28;20036;-75
2022/01/19 03:30:56;;;;;;;76.97;26.65;;;;;;;1.76;100.00;102971.78;5024714;28;20041;-75
2022/01/19 03:33:22;;;;;;;78.40;24.58;;;;;;;1.81;100.00;102977.41;5032544;28;20437;-75
2022/01/19 03:35:47;;;;;;;69.57;26.05;;;;;;;1.83;100.00;102975.84;5032420;28;20041;-75
2022/01/19 03:38:13;;;;;;;79.03;30.00;;;;;;;1.90;100.00;102975.59;5025501;28;20481;-75
2022/01/19 03:40:38;;;;;;;93.50;28.65;;;;;;;1.97;100.00;102971.84;5030678;28;20124;-74
2022/01/19 03:43:05;;;;;;;104.75;30.88;;;;;;;2.08;100.00;102970.19;5022726;28;20072;-75
2022/01/19 03:45:34;;;;;;;103.45;31.70;;;;;;;2.18;100.00;102965.91;5024150;28;20025;-75
2022/01/19 03:50:53;;;;;;;123.90;35.72;;;;;;;2.46;100.00;102969.91;5024906;28;20041;-74
2022/01/19 03:53:18;;;;;;;116.95;35.35;;;;;;;2.55;100.00;102965.50;5021386;28;20394;-73
2022/01/19 03:55:44;;;;;;;131.55;36.83;;;;;;;2.67;100.00;102966.50;5023618;28;20026;-74
2022/01/19 03:58:09;;;;;;;135.95;36.80;;;;;;;2.77;100.00;102970.78;5025023;28;20029;-75
2022/01/19 04:00:35;;;;;;;127.53;37.00;;;;;;;2.83;100.00;102968.66;5019840;28;20040;-75
2022/01/19 04:03:02;;;;;;;127.75;37.47;;;;;;;2.87;100.00;102959.44;5027601;28;20029;-73
2022/01/19 04:05:41;;;;;;;132.10;36.47;;;;;;;2.91;100.00;102958.91;5022201;28;20030;-74
2022/01/19 04:08:07;;;;;;;114.35;34.88;;;;;;;2.95;100.00;102949.66;5028844;28;20029;-74
2022/01/19 04:10:32;;;;;;;134.02;36.00;;;;;;;2.99;100.00;102952.63;5007659;28;20481;-74
2022/01/19 04:13:10;;;;;;;105.00;31.70;;;;;;;3.07;100.00;102954.97;5026005;28;20057;-74
2022/01/19 04:15:38;;;;;;;70.50;25.58;;;;;;;2.99;100.00;102960.44;5028382;28;20397;-74
2022/01/19 04:18:04;;;;;;;60.63;24.52;;;;;;;2.91;100.00;102952.81;5019892;28;20067;-75
2022/01/19 04:20:33;;;;;;;64.80;23.00;;;;;;;2.85;100.00;102953.22;5023258;28;20029;-75
2022/01/19 04:22:59;;;;;;;65.93;24.42;;;;;;;2.78;100.00;102953.47;5033598;28;20473;-75
2022/01/19 04:25:24;;;;;;;65.13;24.05;;;;;;;2.75;100.00;102943.72;5022766;28;20025;-75
2022/01/19 04:27:49;;;;;;;54.47;22.08;;;;;;;2.75;100.00;102948.03;5021377;28;20030;-75
2022/01/19 04:30:15;;;;;;;58.75;22.38;;;;;;;2.70;100.00;102939.88;5029471;28;20044;-75
2022/01/19 04:35:25;;;;;;;60.75;22.05;;;;;;;2.64;100.00;102924.63;5023168;28;20087;-75
2022/01/19 04:38:42;;;;;;;60.28;22.77;;;;;;;2.62;100.00;102923.63;5014205;28;20474;-75
2022/01/19 05:07:30;;;;;;;68.32;23.42;;;;;;;2.64;100.00;102880.44;5014050;28;20144;-74
2022/01/19 05:15:13;;;;;;;66.35;25.25;;;;;;;2.66;100.00;102871.09;5027938;28;20095;-74
2022/01/19 05:17:39;;;;;;;76.53;25.70;;;;;;;2.67;100.00;102870.34;5016070;28;20022;-75
2022/01/19 05:20:06;;;;;;;69.55;25.63;;;;;;;2.69;100.00;102868.75;5020118;28;20022;-75
2022/01/19 05:22:32;;;;;;;75.72;27.02;;;;;;;2.70;100.00;102867.06;5032620;28;20049;-74
2022/01/19 05:24:57;;;;;;;94.40;28.40;;;;;;;2.73;100.00;102858.59;5019696;28;20018;-75
2022/01/19 05:27:23;;;;;;;88.85;27.55;;;;;;;2.76;100.00;102861.47;5028555;28;20385;-75
2022/01/19 05:29:49;;;;;;;87.15;28.10;;;;;;;2.78;100.00;102865.06;5026017;28;20108;-75
2022/01/19 05:32:15;;;;;;;87.93;29.60;;;;;;;2.81;100.00;102857.53;5030529;28;20033;-74
2022/01/19 05:34:40;;;;;;;82.75;29.02;;;;;;;2.84;100.00;102849.97;5030001;28;20025;-74
2022/01/19 05:37:06;;;;;;;92.82;30.75;;;;;;;2.87;100.00;102842.41;5031480;28;20033;-74
2022/01/19 05:39:31;;;;;;;100.45;32.55;;;;;;;2.92;100.00;102838.50;5016122;28;20022;-74
2022/01/19 05:41:57;;;;;;;88.90;30.75;;;;;;;2.94;100.00;102842.13;5028765;28;20060;-74
2022/01/19 05:44:22;;;;;;;97.25;29.15;;;;;;;3.00;100.00;102837.41;5017279;28;20041;-73
2022/01/19 05:46:47;;;;;;;102.07;31.60;;;;;;;3.06;100.00;102831.78;5032511;28;20025;-74
2022/01/19 05:49:13;;;;;;;94.10;31.92;;;;;;;3.10;100.00;102828.66;5035241;28;20041;-73
2022/01/19 05:51:38;;;;;;;103.18;33.38;;;;;;;3.14;100.00;102822.91;5031563;28;20025;-73
2022/01/19 05:54:03;;;;;;;101.30;32.25;;;;;;;3.19;100.00;102815.47;5018534;28;20080;-75
2022/01/19 05:56:29;;;;;;;97.22;31.90;;;;;;;3.22;100.00;102810.50;5030287;28;20029;-73
2022/01/19 05:58:54;;;;;;;105.38;33.88;;;;;;;3.24;100.00;102803.72;5034240;28;20289;-73
2022/01/19 06:01:19;;;;;;;95.10;31.50;;;;;;;3.25;100.00;102800.31;5020161;28;20032;-74
2022/01/19 06:03:45;;;;;;;100.78;32.25;;;;;;;3.30;100.00;102796.41;5030374;28;20052;-74
2022/01/19 06:06:10;;;;;;;96.80;33.55;;;;;;;3.32;100.00;102792.22;5035277;28;20029;-74
2022/01/19 06:08:44;;;;;;;110.03;34.15;;;;;;;3.33;100.00;102786.22;5030968;28;20032;-74
2022/01/19 06:11:10;;;;;;;110.25;33.30;;;;;;;3.35;100.00;102781.13;5019988;28;20033;-74
2022/01/19 06:13:36;;;;;;;103.13;31.98;;;;;;;3.37;100.00;102785.66;5030507;28;20029;-74
2022/01/19 06:16:01;;;;;;;104.60;34.20;;;;;;;3.37;100.00;102780.47;5028919;28;20440;-76
2022/01/19 06:18:27;;;;;;;98.95;32.72;;;;;;;3.38;100.00;102766.66;5021737;28;20025;-75
2022/01/19 06:20:52;;;;;;;99.07;32.47;;;;;;;3.38;100.00;102764.06;5027180;28;20039;-73
2022/01/19 06:23:18;;;;;;;107.50;33.17;;;;;;;3.38;100.00;102761.47;5021314;28;20065;-73
2022/01/19 06:25:43;;;;;;;101.75;33.05;;;;;;;3.37;100.00;102749.22;5028380;28;20033;-73
2022/01/19 06:28:09;;;;;;;93.65;31.17;;;;;;;3.40;100.00;102750.28;5031187;28;20113;-73
2022/01/19 06:30:36;;;;;;;92.30;32.20;;;;;;;3.42;100.00;102743.47;5025459;28;20052;-74
2022/01/19 06:33:01;;;;;;;105.22;33.20;;;;;;;3.43;100.00;102737.47;5033239;28;20507;-73
2022/01/19 06:35:27;;;;;;;101.70;32.33;;;;;;;3.43;100.00;102735.81;5024137;28;20021;-72
2022/01/19 06:37:52;;;;;;;97.65;34.13;;;;;;;3.46;100.00;102729.91;5019269;28;20121;-73
2022/01/19 06:40:20;;;;;;;87.60;32.20;;;;;;;3.47;100.00;102729.13;5021783;28;20444;-72
2022/01/19 06:42:46;;;;;;;99.72;33.83;;;;;;;3.49;100.00;102730.16;5030097;28;20048;-73
2022/01/19 06:45:13;;;;;;;106.93;33.97;;;;;;;3.52;100.00;102726.06;5022761;28;20069;-72
2022/01/19 06:47:39;;;;;;;103.30;34.97;;;;;;;3.52;100.00;102710.44;5023226;28;20461;-72
2022/01/19 06:50:07;;;;;;;105.88;36.42;;;;;;;3.54;100.00;102708.88;5018398;28;20113;-72
2022/01/19 06:52:32;;;;;;;108.82;36.53;;;;;;;3.61;100.00;102715.47;5021306;28;20084;-72
2022/01/19 06:54:58;;;;;;;109.85;36.58;;;;;;;3.62;100.00;102717.28;5030279;28;20056;-74
2022/01/19 06:57:23;;;;;;;110.07;38.00;;;;;;;3.64;100.00;102712.19;5031307;28;20038;-72
2022/01/19 06:59:51;;;;;;;102.38;36.83;;;;;;;3.68;100.00;102712.50;5016945;28;20026;-73
2022/01/19 07:02:19;;;;;;;107.72;37.55;;;;;;;3.72;100.00;102713.66;5020575;28;20025;-73
2022/01/19 07:04:48;;;;;;;113.28;38.22;;;;;;;3.74;100.00;102696.44;5020860;28;20127;-74
2022/01/19 07:07:14;;;;;;;107.60;38.88;;;;;;;3.75;100.00;102697.38;5014143;28;20029;-73
2022/01/19 07:09:39;;;;;;;109.88;38.03;;;;;;;3.79;100.00;102691.59;5018420;28;20037;-73
2022/01/19 07:12:05;;;;;;;103.25;37.60;;;;;;;3.80;100.00;102695.97;5027320;28;20037;-74
2022/01/19 07:14:30;;;;;;;108.88;37.90;;;;;;;3.83;100.00;102693.63;5033819;28;20385;-75
2022/01/19 07:16:55;;;;;;;112.25;38.58;;;;;;;3.86;100.00;102693.84;5019659;28;20075;-75
2022/01/19 07:19:21;;;;;;;98.82;39.65;;;;;;;3.89;100.00;102694.06;5019634;28;20539;-73
2022/01/19 07:21:46;;;;;;;105.30;39.08;;;;;;;3.94;100.00;102684.00;5032171;28;20110;-73
2022/01/19 07:24:12;;;;;;;103.65;40.47;;;;;;;3.96;100.00;102680.72;5034342;28;20022;-74
2022/01/19 07:26:38;;;;;;;100.32;37.53;;;;;;;3.95;100.00;102678.91;5016720;28;20040;-73
2022/01/19 07:29:03;;;;;;;108.72;39.03;;;;;;;3.97;100.00;102685.09;5024160;28;20088;-74
2022/01/19 07:31:28;;;;;;;96.50;39.80;;;;;;;4.02;100.00;102682.88;5015517;28;20056;-74
2022/01/19 07:33:54;;;;;;;98.57;40.47;;;;;;;4.02;100.00;102682.88;5024675;28;20061;-72
2022/01/19 07:36:19;;;;;;;95.20;38.22;;;;;;;4.05;100.00;102689.19;5023083;28;20048;-74
2022/01/19 07:38:44;;;;;;;96.05;36.88;;;;;;;4.06;100.00;102684.91;5024653;28;20021;-74
2022/01/19 07:41:10;;;;;;;102.95;40.90;;;;;;;4.09;100.00;102685.09;5030201;28;20045;-73
2022/01/19 07:43:37;;;;;;;91.93;39.28;;;;;;;4.07;100.00;102680.56;5034545;28;20039;-74
2022/01/19 07:46:03;;;;;;;91.25;39.40;;;;;;;4.10;100.00;102680.81;5032908;28;20033;-73
2022/01/19 07:48:28;;;;;;;101.30;39.67;;;;;;;4.12;100.00;102674.91;5027718;28;20037;-74
2022/01/19 07:50:53;;;;;;;103.72;39.75;;;;;;;4.15;100.00;102674.22;5028049;28;20033;-73
2022/01/19 07:53:19;;;;;;;96.85;38.55;;;;;;;4.17;100.00;102662.22;5019748;28;20021;-74
2022/01/19 07:55:46;;;;;;;94.68;40.22;;;;;;;4.18;100.00;102659.72;5020717;28;20069;-73
2022/01/19 07:58:12;;;;;;;94.88;39.97;;;;;;;4.21;100.00;102653.84;5021446;28;20946;-74
2022/01/19 08:00:38;;;;;;;89.97;39.08;;;;;;;4.26;100.00;102657.69;5026174;28;20026;-73
2022/01/19 08:03:04;;;;;;;96.93;40.40;;;;;;;4.27;100.00;102641.22;5027732;28;20450;-74
2022/01/19 08:05:30;;;;;;;92.13;40.60;;;;;;;4.27;100.00;102641.22;5020557;28;20392;-73
2022/01/19 08:07:56;;;;;;;96.57;40.03;;;;;;;4.28;100.00;102634.34;5034284;28;20036;-73
2022/01/19 08:10:21;;;;;;;93.55;39.50;;;;;;;4.28;100.00;102631.72;5019621;28;20136;-74
2022/01/19 08:12:49;;;;;;;89.60;40.35;;;;;;;4.29;100.00;102630.94;5028472;28;20037;-74
2022/01/19 08:15:14;;;;;;;88.18;39.65;;;;;;;4.30;100.00;102622.31;5038433;28;20045;-74
2022/01/19 08:17:39;;;;;;;92.90;39.25;;;;;;;4.30;100.00;102623.22;5029631;28;20025;-74
2022/01/19 08:20:06;;;;;;;88.13;37.95;;;;;;;4.32;100.00;102624.22;5022940;28;20025;-73
2022/01/19 08:22:31;;;;;;;88.70;37.88;;;;;;;4.30;100.00;102618.00;5036203;28;20067;-73
2022/01/19 08:24:56;;;;;;;93.03;38.55;;;;;;;4.32;100.00;102615.50;5028386;28;20362;-73
2022/01/19 08:27:22;;;;;;;93.28;40.58;;;;;;;4.33;100.00;102622.53;5028006;28;20092;-72
2022/01/19 08:29:47;;;;;;;91.18;40.33;;;;;;;4.31;100.00;102631.94;5025570;28;20041;-74
2022/01/19 08:32:12;;;;;;;95.95;38.63;;;;;;;4.32;100.00;102636.34;5023489;28;20333;-73
2022/01/19 08:34:38;;;;;;;80.10;37.92;;;;;;;4.32;100.00;102631.16;5039648;28;20047;-74
2022/01/19 08:37:03;;;;;;;81.10;35.83;;;;;;;4.32;100.00;102616.41;5023768;28;20474;-74
2022/01/19 08:39:29;;;;;;;84.63;37.70;;;;;;;4.35;100.00;102619.25;5024468;28;20033;-73
2022/01/19 08:41:54;;;;;;;82.45;36.55;;;;;;;4.35;100.00;102614.03;5026050;28;20041;-73
2022/01/19 08:44:21;;;;;;;82.72;36.63;;;;;;;4.36;100.00;102608.00;5018052;28;20117;-74
2022/01/19 08:46:47;;;;;;;88.68;37.80;;;;;;;4.38;100.00;102608.09;5025474;28;20124;-73
2022/01/19 08:49:14;;;;;;;86.13;38.63;;;;;;;4.44;100.00;102598.13;5022764;28;20116;-73
2022/01/19 08:51:39;;;;;;;88.68;38.13;;;;;;;4.45;100.00;102597.34;5029272;28;20029;-73
2022/01/19 08:54:05;;;;;;;85.80;37.17;;;;;;;4.44;100.00;102594.63;5014826;28;20052;-73
2022/01/19 08:56:31;;;;;;;85.68;38.05;;;;;;;4.45;100.00;102591.19;5017989;28;20030;-74
2022/01/19 08:58:56;;;;;;;83.70;35.55;;;;;;;4.43;100.00;102585.88;5020363;28;20044;-74
2022/01/19 09:01:23;;;;;;;78.30;34.92;;;;;;;4.47;100.00;102571.38;5011695;28;20040;-74
2022/01/19 09:03:48;;;;;;;74.10;35.22;;;;;;;4.47;100.00;102574.88;5017272;28;20029;-74
2022/01/19 09:06:14;;;;;;;86.57;36.40;;;;;;;4.49;100.00;102578.50;5024040;28;20104;-74
2022/01/19 09:08:39;;;;;;;74.03;33.58;;;;;;;4.51;100.00;102583.81;5029381;28;20474;-74
2022/01/19 09:11:06;;;;;;;83.03;34.78;;;;;;;4.49;100.00;102568.06;5041284;28;20397;-74
2022/01/19 09:13:32;;;;;;;84.95;35.42;;;;;;;4.52;100.00;102568.28;5027849;28;20053;-72
2022/01/19 09:15:58;;;;;;;83.60;34.95;;;;;;;4.57;100.00;102558.16;5030871;28;20036;-74
2022/01/19 09:18:23;;;;;;;80.85;34.85;;;;;;;4.59;100.00;102551.34;5039284;28;20025;-75
2022/01/19 09:20:48;;;;;;;78.13;35.20;;;;;;;4.59;100.00;102547.84;5025654;28;20124;-73
2022/01/19 09:23:14;;;;;;;76.35;34.05;;;;;;;4.61;100.00;102541.91;5022606;28;20466;-73
2022/01/19 09:25:40;;;;;;;88.53;35.05;;;;;;;4.64;100.00;102533.41;5031410;28;20529;-74
2022/01/19 09:28:07;;;;;;;74.68;33.42;;;;;;;4.65;100.00;102519.56;5039332;28;20029;-74
2022/01/19 09:30:32;;;;;;;62.92;30.88;;;;;;;4.67;100.00;102521.50;5027087;28;20038;-74
2022/01/19 09:33:09;;;;;;;80.07;32.28;;;;;;;4.68;100.00;102523.31;5034081;28;20112;-74
2022/01/19 09:38:38;;;;;;;77.40;32.30;;;;;;;4.74;100.00;102522.81;5028605;28;20320;-74
2022/01/19 09:41:07;;;;;;;69.88;29.83;;;;;;;4.71;100.00;102522.63;5027846;28;20041;-75
2022/01/19 09:43:33;;;;;;;67.80;30.80;;;;;;;4.66;100.00;102514.47;5024275;28;20029;-74
2022/01/19 09:46:00;;;;;;;71.53;30.65;;;;;;;4.67;100.00;102524.09;5022356;28;20063;-73
2022/01/19 09:48:26;;;;;;;72.50;30.20;;;;;;;4.72;100.00;102522.72;5030995;28;20042;-74
2022/01/19 09:50:54;;;;;;;73.00;30.55;;;;;;;4.70;100.00;102526.91;5019186;28;20065;-74
2022/01/19 09:53:20;;;;;;;70.57;30.00;;;;;;;4.75;100.00;102528.91;5032941;28;20032;-74
2022/01/19 09:55:46;;;;;;;67.65;30.60;;;;;;;4.80;100.00;102535.34;5035195;28;20049;-73
2022/01/19 09:58:12;;;;;;;70.10;28.70;;;;;;;4.81;100.00;102539.78;5023644;28;20057;-74
2022/01/19 10:00:37;;;;;;;66.00;29.27;;;;;;;4.72;100.00;102540.97;5027630;28;20107;-74
2022/01/19 10:03:15;;;;;;;72.32;29.25;;;;;;;4.75;100.00;102544.56;5027807;28;20026;-73
2022/01/19 10:06:14;;;;;;;61.13;27.45;;;;;;;4.72;100.00;102548.78;5027201;28;20037;-73
2022/01/19 10:08:49;;;;;;;67.00;29.08;;;;;;;4.73;100.00;102558.44;5027827;28;20503;-73
2022/01/19 10:16:58;;;;;;;66.50;30.17;;;;;;;4.73;100.00;102548.00;5025765;28;20044;-74
2022/01/19 10:17:07;;;;;;;58.30;28.52;;;;;;;4.65;100.00;102543.03;5029602;28;20571;-73
2022/01/19 10:19:37;;;;;;;63.17;28.25;;;;;;;4.66;100.00;102544.84;5032259;28;20080;-73
2022/01/19 10:22:12;;;;;;;81.20;30.90;;;;;;;4.68;100.00;102544.16;5033481;28;20076;-73
2022/01/19 10:24:39;;;;;;;63.20;29.70;;;;;;;4.68;100.00;102533.75;5017962;28;20032;-73
2022/01/19 10:27:28;;;;;;;67.68;31.23;;;;;;;4.68;100.00;102538.03;5042251;28;20059;-72
2022/01/19 10:29:55;;;;;;;69.43;32.60;;;;;;;4.67;100.00;102524.09;5030539;28;20057;-72
2022/01/19 10:32:25;;;;;;;69.50;30.75;;;;;;;4.69;100.00;102525.13;5032489;28;20087;-72
2022/01/19 10:34:51;;;;;;;67.50;31.73;;;;;;;4.72;100.00;102514.88;5025835;28;20091;-72
2022/01/19 10:37:25;;;;;;;71.57;31.95;;;;;;;4.75;100.00;102508.06;5030624;28;20029;-72
2022/01/19 10:39:54;;;;;;;63.83;29.95;;;;;;;4.68;100.00;102502.44;5035121;28;20516;-72
2022/01/19 10:42:23;;;;;;;68.55;31.05;;;;;;;4.68;100.00;102496.31;5032121;28;20068;-71
2022/01/19 10:44:54;;;;;;;71.15;30.67;;;;;;;4.66;100.00;102493.59;5042801;28;20123;-72
2022/01/19 10:47:42;;;;;;;66.18;31.75;;;;;;;4.74;100.00;102475.88;5025364;28;20025;-72
2022/01/19 10:50:14;;;;;;;66.20;31.23;;;;;;;4.81;100.00;102472.84;5022480;28;20528;-73
2022/01/19 10:52:42;;;;;;;69.32;31.27;;;;;;;4.82;100.00;102464.25;5037921;28;20047;-73
2022/01/19 10:55:18;;;;;;;62.90;28.05;;;;;;;4.87;100.00;102467.13;5033775;28;20069;-73
2022/01/19 10:57:45;;;;;;;71.18;31.25;;;;;;;4.98;100.00;102463.56;5024742;28;20457;-73
2022/01/19 11:00:21;;;;;;;67.35;32.65;;;;;;;5.03;100.00;102469.97;5034984;28;20032;-73
2022/01/19 11:02:49;;;;;;;60.47;30.52;;;;;;;5.13;100.00;102454.91;5020793;28;20043;-74
2022/01/19 11:05:16;;;;;;;67.97;30.73;;;;;;;5.22;100.00;102439.84;5020771;28;20075;-74
2022/01/19 11:07:42;;;;;;;59.42;29.52;;;;;;;5.21;100.00;102440.66;5031867;28;20040;-74
2022/01/19 11:12:40;;;;;;;68.15;30.27;;;;;;;5.25;100.00;102429.63;5032842;28;20068;-74
2022/01/19 11:15:07;;;;;;;67.45;31.10;;;;;;;5.42;100.00;102430.66;5024103;28;20025;-74
2022/01/19 11:17:33;;;;;;;60.33;28.17;;;;;;;5.64;100.00;102421.56;5026451;28;20087;-73
2022/01/19 11:20:07;;;;;;;58.92;31.02;;;;;;;5.69;100.00;102415.81;5027587;28;20461;-74
2022/01/19 11:22:36;;;;;;;57.25;30.10;;;;;;;5.85;100.00;102408.94;5013748;28;20026;-73
2022/01/19 11:25:16;;;;;;;57.78;29.52;;;;;;;5.81;100.00;102397.41;5022791;28;20037;-74
2022/01/19 11:27:48;;;;;;;53.17;27.50;;;;;;;5.86;100.00;102392.44;5029642;28;20029;-73
2022/01/19 11:30:31;;;;;;;54.53;28.67;;;;;;;5.70;100.00;102390.63;5026124;28;20025;-73
2022/01/19 11:33:37;;;;;;;54.95;27.80;;;;;;;5.62;100.00;102381.41;5021857;28;20383;-72
2022/01/19 11:36:05;;;;;;;56.40;27.08;;;;;;;5.74;100.00;102388.28;5023326;28;20033;-72
2022/01/19 11:38:45;;;;;;;54.47;27.38;;;;;;;5.71;100.00;102369.81;5023253;28;20433;-72
2022/01/19 11:41:10;;;;;;;59.38;28.40;;;;;;;5.81;100.00;102362.56;5022358;28;20056;-71
2022/01/19 11:43:46;;;;;;;53.70;27.02;;;;;;;5.92;100.00;102351.03;5021923;28;20033;-72
2022/01/19 11:46:34;;;;;;;55.85;27.67;;;;;;;6.04;100.00;102351.78;5019567;28;20021;-73
2022/01/19 11:49:03;;;;;;;51.05;25.33;;;;;;;6.03;100.00;102347.38;5018444;28;20026;-73
2022/01/19 11:51:29;;;;;;;52.53;26.17;;;;;;;5.90;100.00;102350.94;5023913;28;20013;-73
2022/01/19 11:54:09;;;;;;;54.20;25.42;;;;;;;5.94;100.00;102338.97;5024010;28;20397;-73
2022/01/19 11:56:59;;;;;;;52.60;26.17;;;;;;;5.73;100.00;102331.63;5023691;28;20401;-73
2022/01/19 11:59:38;;;;;;;53.47;25.80;;;;;;;5.85;100.00;102320.13;5020875;28;20397;-73
2022/01/19 12:02:26;;;;;;;61.28;27.85;;;;;;;5.81;100.00;102324.25;5023066;28;20083;-74
2022/01/19 12:04:54;;;;;;;52.38;24.67;;;;;;;5.85;100.00;102321.03;5029975;28;20473;-74
2022/01/19 12:07:36;;;;;;;55.50;25.75;;;;;;;5.80;100.00;102316.34;5020667;28;20370;-74
2022/01/19 12:10:05;;;;;;;53.70;26.20;;;;;;;5.77;100.00;102308.31;5021557;28;20405;-73
2022/01/19 12:12:35;;;;;;;62.97;26.20;;;;;;;5.66;100.00;102308.56;5022919;28;20028;-73
2022/01/19 12:15:05;;;;;;;53.65;26.60;;;;;;;5.60;100.00;102302.97;5020979;28;20032;-73
2022/01/19 12:18:09;;;;;;;52.28;25.15;;;;;;;5.57;100.00;102298.50;5021550;28;20038;-72
2022/01/19 12:20:51;;;;;;;56.67;26.63;;;;;;;5.55;100.00;102291.38;5022951;28;20025;-74
2022/01/19 12:23:32;;;;;;;51.40;26.08;;;;;;;5.58;100.00;102288.94;5026528;28;20033;-72
2022/01/19 12:26:00;;;;;;;53.78;26.35;;;;;;;5.56;100.00;102295.75;5018982;28;20037;-74
2022/01/19 12:28:51;;;;;;;57.97;27.17;;;;;;;5.50;100.00;102301.50;5015651;28;20038;-73
2022/01/19 12:31:22;;;;;;;58.38;26.33;;;;;;;5.45;100.00;102289.88;5020187;28;20033;-73
2022/01/19 12:34:03;;;;;;;60.78;26.80;;;;;;;5.44;100.00;102289.78;5019069;28;20041;-71
2022/01/19 12:36:50;;;;;;;62.80;27.48;;;;;;;5.48;100.00;102270.88;5024998;28;20022;-72
2022/01/19 12:39:25;;;;;;;53.50;25.08;;;;;;;5.50;100.00;102261.47;5020671;28;20063;-72
2022/01/19 12:42:03;;;;;;;56.85;27.38;;;;;;;5.47;100.00;102253.44;5021896;28;20115;-73